Chicago, Illinois
Traffic Map
Current Weather Conditions
Chicago, Illinois
Clear
Clear
38°
Feels Like: 30°
Wind Chill: 30° Ceiling: Unl
Heat Index: 38° Visibility: 10mi
Dew Point: 29° Wind: 12mph
Humidity: 70% Direction: 20° (NNE)
Pressure: 30.11in Gusts: 0mph
Raw Report DataKMDW 230751Z 02010KT 10SM CLR 03/M02 A3011 RMK AO2 SLP201 T00331017 $
Traffic Incident Summary
Active as of:
Severity:
Category:
InformationThere was an issue retrieving the traffic information for this location. Please try a different location or try again shortly.
Advertisements
At Last! Intellicast now available for iPhone and Android